METAR stanice u blizini

 

LYBE - Beograd / Surčin, Srbija
Ažurirano: 29/11/2021 01:00
Slaba kiša, Pretežno oblačno
Slaba kiša, Pretežno oblačno
 Pravac vetra ZJZ
Vetar: ZJZ 11 km/h
Temperatura: 6°C
Osećaj hladnoće: 4°C
Tačka rose: 6°C
Vlažnost: 100%
Pritisak: 996 hPa
Pregled: Light Rain
Oblaci: Mostly Cloudy
Vidljivost: 10 km
Cloud details: Partly Cloudy 396 m
Mostly Cloudy 1006 m
2021/11/29 00:00 LYBE 290000Z 24006KT 9999 -RA SCT013 BKN033 06/06 Q0996 NOSIG
LYBT - Beograd / Batajnica, Srbija
Ažurirano: 29/11/2021 01:00
Slaba kiša, Pretežno oblačno
Slaba kiša, Pretežno oblačno
 Pravac vetra J
Vetar: J 9 km/h
Temperatura: 6°C
Osećaj hladnoće: 4°C
Tačka rose: 6°C
Vlažnost: 100%
Pritisak: 995 hPa
Pregled: Light Rain
Oblaci: Mostly Cloudy
Vidljivost: 10 km
Cloud details: Few Clouds 152 m
Mostly Cloudy 1036 m
2021/11/29 00:00 LYBT 290000Z 17005KT 140V200 9999 -RA FEW005 BKN034 06/06 Q0995 NOSIG
LYVR - Vršac, Srbija
Ažurirano: 29/11/2021 01:00
Slaba kiša, Oblačno
Slaba kiša, Oblačno
 Pravac vetra Z
Vetar: Z 17 km/h
Temperatura: 8°C
Osećaj hladnoće: 5°C
Tačka rose: 8°C
Vlažnost: 100%
Pritisak: 994 hPa
Pregled: Light Rain
Oblaci: Oblačno
Vidljivost: 10 km
Cloud details: Oblačno 152 m
2021/11/29 00:00 LYVR 290000Z AUTO 27009KT 240V310 9999 -RA OVC005/// 08/08 Q0994
 
LYKV - Lađevci, Srbija
Ažurirano: 29/11/2021 01:00
Partly Cloudy
Partly Cloudy
 Pravac vetra Z
Vetar: Z 11 km/h
Temperatura: 8°C
Osećaj hladnoće: 6°C
Tačka rose: 5°C
Vlažnost: 82%
Pritisak: 993 hPa
Oblaci: Partly Cloudy
Vidljivost: 10 km
Cloud details: Partly Cloudy 1219 m
2021/11/29 00:00 LYKV 290000Z 26006KT 9999 SCT040 08/05 Q0993 NOSIG
LYNI - Niš, Srbija
Ažurirano: 29/11/2021 01:00
Few Clouds
Few Clouds
 Pravac vetra JI
Vetar: JI 2 km/h
Temperatura: 12°C
Tačka rose: 8°C
Vlažnost: 77%
Pritisak: 994 hPa
Oblaci: Few Clouds
Vidljivost: 10 km
Cloud details: Few Clouds 914 m
2021/11/29 00:00 LYNI 290000Z 13001KT 9999 FEW030 12/08 Q0994 NOSIG
BKPR - Priština, Srbija
Ažurirano: 29/11/2021 01:00
Slaba kiša, Pretežno oblačno
Slaba kiša, Pretežno oblačno
 Pravac vetra J
Vetar: J 17 km/h
Temperatura: 7°C
Osećaj hladnoće: 4°C
Tačka rose: 6°C
Vlažnost: 93%
Pritisak: 995 hPa
Pregled: Light Rain
Oblaci: Mostly Cloudy
Vidljivost: 10 km
Cloud details: Partly Cloudy 610 m
Mostly Cloudy 1524 m
2021/11/29 00:00 BKPR 290000Z 17009KT 9999 -RA SCT020 BKN050 07/06 Q0995 NOSIG
 
LHPP - Pecs / Pogany, Hungary
Ažurirano: 29/11/2021 00:54
Slaba kiša, Showers, Oblačno
Slaba kiša, Showers, Oblačno
 Pravac vetra SI
Vetar: SI 6 km/h
Temperatura: 4°C
Tačka rose: 4°C
Vlažnost: 100%
Pritisak: 995 hPa
Pregled: Slaba kiša, Showers
Oblaci: Oblačno
Vidljivost: 10 km
Cloud details: Oblačno 213 m
2021/11/28 23:54 LHPP 282354Z AUTO 04003KT 9999 -SHRA OVC007 04/04 Q0995
LHUD - Szeged, Hungary
Ažurirano: 04/07/2019 01:45
NOT Current
Vedro
Vedro
 Pravac vetra S
Vetar: S 7 km/h
Temperatura: 18°C
Tačka rose: 13°C
Vlažnost: 73%
Pritisak: 1019 hPa
Pregled: Vedro
Vidljivost: greater than 10 km
2019/07/03 23:45 LHUD 032345Z 35004KT CAVOK 18/13 Q1019
LRTR - Timisoara, Romania
Ažurirano: 29/11/2021 01:00
Slaba kiša, Pretežno oblačno
Slaba kiša, Pretežno oblačno
 Pravac vetra ZSZ
Vetar: ZSZ 17 km/h
Temperatura: 7°C
Osećaj hladnoće: 4°C
Tačka rose: 7°C
Vlažnost: 100%
Pritisak: 993 hPa
Pregled: Light Rain
Oblaci: Mostly Cloudy
Vidljivost: 10 km
Cloud details: Few Clouds 122 m
Partly Cloudy 152 m
Mostly Cloudy 701 m
2021/11/29 00:00 LRTR 290000Z 30009KT 9999 -RA FEW004 SCT005 BKN023 07/07 Q0993
 
LRCV - Craiova, Romania
Ažurirano: 29/11/2021 01:00
Slaba kiša, Delimično oblačno
Slaba kiša, Delimično oblačno
 Pravac vetra ISI
Vetar: ISI 15 km/h
Temperatura: 9°C
Osećaj hladnoće: 7°C
Tačka rose: 7°C
Vlažnost: 87%
Pritisak: 994 hPa
Pregled: Light Rain
Oblaci: Partly Cloudy
Vidljivost: 10 km
2021/11/29 00:00 LRCV 290000Z 07008KT 9999 -RA NSC 09/07 Q0994
LBSF - Sofia, Bulgaria
Ažurirano: 29/11/2021 01:00
Slaba kiša, Pretežno oblačno
Slaba kiša, Pretežno oblačno
 Pravac vetra varies
Vetar: varies 6 km/h
Temperatura: 8°C
Tačka rose: 7°C
Vlažnost: 93%
Pritisak: 996 hPa
Pregled: Light Rain
Oblaci: Mostly Cloudy
Vidljivost: 10 km
Cloud details: Partly Cloudy 1219 m
Mostly Cloudy 1494 m
2021/11/29 00:00 LBSF 290000Z VRB03KT 9999 -RA SCT040 BKN049 08/07 Q0996 TEMPO 5000 RA
LWSK - Skoplje, Makedonija
Ažurirano: 29/11/2021 01:00
Padavine, Oblačno
Padavine, Oblačno
 Pravac vetra calm
Vetar: Tišina
Temperatura: 8°C
Tačka rose: 8°C
Vlažnost: 100%
Pritisak: 997 hPa
Pregled: Padavine
Oblaci: Oblačno
Vidljivost: 10 km
Cloud details: Partly Cloudy 518 m
Oblačno 1524 m
2021/11/29 00:00 LWSK 290000Z 00000KT 9999 RA SCT017 OVC050 08/08 Q0997 NOSIG
 
LYPG - Podgorica, Crna Gora
Ažurirano: 29/11/2021 01:00
Mostly Cloudy
Mostly Cloudy
 Pravac vetra JI
Vetar: JI 7 km/h
Temperatura: 13°C
Tačka rose: 8°C
Vlažnost: 72%
Pritisak: 996 hPa
Oblaci: Mostly Cloudy
Vidljivost: 10 km
Cloud details: Few Clouds 914 m
Partly Cloudy 1219 m
Mostly Cloudy 2134 m
2021/11/29 00:00 LYPG 290000Z 13004KT 100V220 9999 FEW030 SCT040 BKN070 13/08 Q0996 NOSIG
LQSA - Sarajevo, Bosna i Hercegovina
Ažurirano: 29/11/2021 01:00
Mostly Cloudy
Mostly Cloudy
 Pravac vetra JJI
Vetar: JJI 9 km/h
Temperatura: 5°C
Osećaj hladnoće: 3°C
Tačka rose: 5°C
Vlažnost: 100%
Pritisak: 994 hPa
Oblaci: Mostly Cloudy
Vidljivost: 10 km
Cloud details: Partly Cloudy 1067 m
Mostly Cloudy 1524 m
2021/11/29 00:00 LQSA 290000Z 15005KT 130V200 9999 SCT035 BKN050 05/05 Q0994 RERA
LDOS - Osijek, Hrvatksa
Ažurirano: 29/11/2021 01:00
Mostly Cloudy
Mostly Cloudy
 Pravac vetra JZ
Vetar: JZ 17 km/h
Temperatura: 5°C
Osećaj hladnoće: 2°C
Tačka rose: 5°C
Vlažnost: 100%
Pritisak: 995 hPa
Oblaci: Mostly Cloudy
Vidljivost: 10 km
Cloud details: Partly Cloudy 305 m
Mostly Cloudy 823 m
2021/11/29 00:00 LDOS 290000Z 22009KT 9999 SCT010 BKN027 05/05 Q0995